sensor_id;sensor_type;location;lat;lon;timestamp;temperature;humidity
36670;DHT22;22662;47.412;9.742;2022-10-16T00:00:30;13.90;99.90
36670;DHT22;22662;47.412;9.742;2022-10-16T00:02:56;13.90;99.90
36670;DHT22;22662;47.412;9.742;2022-10-16T00:05:21;13.90;99.90
36670;DHT22;22662;47.412;9.742;2022-10-16T00:07:47;14.00;99.90
36670;DHT22;22662;47.412;9.742;2022-10-16T00:10:12;14.00;99.90
36670;DHT22;22662;47.412;9.742;2022-10-16T00:12:38;14.00;99.90
36670;DHT22;22662;47.412;9.742;2022-10-16T00:15:04;14.00;99.90
36670;DHT22;22662;47.412;9.742;2022-10-16T00:17:30;14.00;99.90
36670;DHT22;22662;47.412;9.742;2022-10-16T00:19:55;13.90;99.90
36670;DHT22;22662;47.412;9.742;2022-10-16T00:22:22;14.00;99.90
36670;DHT22;22662;47.412;9.742;2022-10-16T00:24:47;13.90;99.90
36670;DHT22;22662;47.412;9.742;2022-10-16T00:27:13;13.90;99.90
36670;DHT22;22662;47.412;9.742;2022-10-16T00:29:39;13.90;99.90
36670;DHT22;22662;47.412;9.742;2022-10-16T00:32:04;13.90;99.90
36670;DHT22;22662;47.412;9.742;2022-10-16T00:34:30;13.80;99.90
36670;DHT22;22662;47.412;9.742;2022-10-16T00:36:55;13.80;99.90
36670;DHT22;22662;47.412;9.742;2022-10-16T00:39:21;13.80;99.90
36670;DHT22;22662;47.412;9.742;2022-10-16T00:41:47;13.90;99.90
36670;DHT22;22662;47.412;9.742;2022-10-16T00:46:57;14.00;99.90
36670;DHT22;22662;47.412;9.742;2022-10-16T00:49:23;13.90;99.90
36670;DHT22;22662;47.412;9.742;2022-10-16T00:51:50;13.90;99.90
36670;DHT22;22662;47.412;9.742;2022-10-16T00:54:27;13.90;99.90
36670;DHT22;22662;47.412;9.742;2022-10-16T00:56:53;13.80;99.90
36670;DHT22;22662;47.412;9.742;2022-10-16T00:59:24;13.80;99.90
36670;DHT22;22662;47.412;9.742;2022-10-16T01:01:50;13.80;99.90
36670;DHT22;22662;47.412;9.742;2022-10-16T01:04:16;13.80;99.90
36670;DHT22;22662;47.412;9.742;2022-10-16T01:06:56;13.80;99.90
36670;DHT22;22662;47.412;9.742;2022-10-16T01:09:27;13.80;99.90
36670;DHT22;22662;47.412;9.742;2022-10-16T01:12:01;13.80;99.90
36670;DHT22;22662;47.412;9.742;2022-10-16T01:14:53;13.90;99.90
36670;DHT22;22662;47.412;9.742;2022-10-16T01:17:25;13.90;99.90
36670;DHT22;22662;47.412;9.742;2022-10-16T01:20:01;13.90;99.90
36670;DHT22;22662;47.412;9.742;2022-10-16T01:22:33;13.90;99.90
36670;DHT22;22662;47.412;9.742;2022-10-16T01:25:02;13.90;99.90
36670;DHT22;22662;47.412;9.742;2022-10-16T01:27:30;14.00;99.90
36670;DHT22;22662;47.412;9.742;2022-10-16T01:32:33;14.00;99.90
36670;DHT22;22662;47.412;9.742;2022-10-16T01:37:38;14.00;99.90
36670;DHT22;22662;47.412;9.742;2022-10-16T01:40:09;14.00;99.90
36670;DHT22;22662;47.412;9.742;2022-10-16T01:42:37;14.00;99.90
36670;DHT22;22662;47.412;9.742;2022-10-16T01:45:04;13.90;99.90
36670;DHT22;22662;47.412;9.742;2022-10-16T01:47:32;13.90;99.90
36670;DHT22;22662;47.412;9.742;2022-10-16T01:49:59;14.00;99.90
36670;DHT22;22662;47.412;9.742;2022-10-16T01:52:25;14.00;99.90
36670;DHT22;22662;47.412;9.742;2022-10-16T01:54:52;14.00;99.90
36670;DHT22;22662;47.412;9.742;2022-10-16T01:57:19;13.90;99.90
36670;DHT22;22662;47.412;9.742;2022-10-16T01:59:47;13.90;99.90
36670;DHT22;22662;47.412;9.742;2022-10-16T02:02:14;13.90;99.90
36670;DHT22;22662;47.412;9.742;2022-10-16T02:04:42;13.90;99.90
36670;DHT22;22662;47.412;9.742;2022-10-16T02:07:09;13.90;99.90
36670;DHT22;22662;47.412;9.742;2022-10-16T02:09:35;13.90;99.90
36670;DHT22;22662;47.412;9.742;2022-10-16T02:12:03;13.90;99.90
36670;DHT22;22662;47.412;9.742;2022-10-16T02:14:30;13.90;99.90
36670;DHT22;22662;47.412;9.742;2022-10-16T02:16:56;13.90;99.90
36670;DHT22;22662;47.412;9.742;2022-10-16T02:19:21;13.90;99.90
36670;DHT22;22662;47.412;9.742;2022-10-16T02:21:57;13.90;99.90
36670;DHT22;22662;47.412;9.742;2022-10-16T02:27:05;13.90;99.90
36670;DHT22;22662;47.412;9.742;2022-10-16T02:29:34;13.90;99.90
36670;DHT22;22662;47.412;9.742;2022-10-16T02:32:03;14.00;99.90
36670;DHT22;22662;47.412;9.742;2022-10-16T02:34:30;13.90;99.90
36670;DHT22;22662;47.412;9.742;2022-10-16T02:36:57;13.80;99.90
36670;DHT22;22662;47.412;9.742;2022-10-16T02:39:23;13.80;99.90
36670;DHT22;22662;47.412;9.742;2022-10-16T02:41:49;13.80;99.90
36670;DHT22;22662;47.412;9.742;2022-10-16T02:44:14;13.80;99.90
36670;DHT22;22662;47.412;9.742;2022-10-16T02:46:40;13.90;99.90
36670;DHT22;22662;47.412;9.742;2022-10-16T02:49:05;14.00;99.90
36670;DHT22;22662;47.412;9.742;2022-10-16T02:51:31;14.00;99.90
36670;DHT22;22662;47.412;9.742;2022-10-16T02:53:57;14.10;99.90
36670;DHT22;22662;47.412;9.742;2022-10-16T02:56:22;14.00;99.90
36670;DHT22;22662;47.412;9.742;2022-10-16T02:58:48;14.00;99.90
36670;DHT22;22662;47.412;9.742;2022-10-16T03:01:14;13.90;99.90
36670;DHT22;22662;47.412;9.742;2022-10-16T03:03:42;13.80;99.90
36670;DHT22;22662;47.412;9.742;2022-10-16T03:06:07;13.70;99.90
36670;DHT22;22662;47.412;9.742;2022-10-16T03:08:33;13.60;99.90
36670;DHT22;22662;47.412;9.742;2022-10-16T03:10:58;13.70;99.90
36670;DHT22;22662;47.412;9.742;2022-10-16T03:13:24;13.70;99.90
36670;DHT22;22662;47.412;9.742;2022-10-16T03:15:49;13.70;99.90
36670;DHT22;22662;47.412;9.742;2022-10-16T03:18:15;13.70;99.90
36670;DHT22;22662;47.412;9.742;2022-10-16T03:20:42;13.60;99.90
36670;DHT22;22662;47.412;9.742;2022-10-16T03:23:07;13.70;99.90
36670;DHT22;22662;47.412;9.742;2022-10-16T03:25:33;13.60;99.90
36670;DHT22;22662;47.412;9.742;2022-10-16T03:27:59;13.60;99.90
36670;DHT22;22662;47.412;9.742;2022-10-16T03:30:24;13.50;99.90
36670;DHT22;22662;47.412;9.742;2022-10-16T03:32:50;13.50;99.90
36670;DHT22;22662;47.412;9.742;2022-10-16T03:35:22;13.50;99.90
36670;DHT22;22662;47.412;9.742;2022-10-16T03:37:48;13.40;99.90
36670;DHT22;22662;47.412;9.742;2022-10-16T03:40:14;13.40;99.90
36670;DHT22;22662;47.412;9.742;2022-10-16T03:42:39;13.30;99.90
36670;DHT22;22662;47.412;9.742;2022-10-16T03:45:05;13.30;99.90
36670;DHT22;22662;47.412;9.742;2022-10-16T03:47:31;13.30;99.90
36670;DHT22;22662;47.412;9.742;2022-10-16T03:49:58;13.30;99.90
36670;DHT22;22662;47.412;9.742;2022-10-16T03:52:24;13.30;99.90
36670;DHT22;22662;47.412;9.742;2022-10-16T03:54:49;13.30;99.90
36670;DHT22;22662;47.412;9.742;2022-10-16T03:57:15;13.30;99.90
36670;DHT22;22662;47.412;9.742;2022-10-16T03:59:40;13.30;99.90
36670;DHT22;22662;47.412;9.742;2022-10-16T04:02:06;13.30;99.90
36670;DHT22;22662;47.412;9.742;2022-10-16T04:04:31;13.30;99.90
36670;DHT22;22662;47.412;9.742;2022-10-16T04:06:57;13.40;99.90
36670;DHT22;22662;47.412;9.742;2022-10-16T04:09:22;13.40;99.90
36670;DHT22;22662;47.412;9.742;2022-10-16T04:11:48;13.40;99.90
36670;DHT22;22662;47.412;9.742;2022-10-16T04:14:14;13.40;99.90
36670;DHT22;22662;47.412;9.742;2022-10-16T04:16:39;13.40;99.90
36670;DHT22;22662;47.412;9.742;2022-10-16T04:19:05;13.40;99.90
36670;DHT22;22662;47.412;9.742;2022-10-16T04:21:30;13.40;99.90
36670;DHT22;22662;47.412;9.742;2022-10-16T04:23:56;13.30;99.90
36670;DHT22;22662;47.412;9.742;2022-10-16T04:26:21;13.40;99.90
36670;DHT22;22662;47.412;9.742;2022-10-16T04:28:47;13.40;99.90
36670;DHT22;22662;47.412;9.742;2022-10-16T04:31:12;13.40;99.90
36670;DHT22;22662;47.412;9.742;2022-10-16T04:33:38;13.40;99.90
36670;DHT22;22662;47.412;9.742;2022-10-16T04:36:04;13.40;99.90
36670;DHT22;22662;47.412;9.742;2022-10-16T04:38:29;13.50;99.90
36670;DHT22;22662;47.412;9.742;2022-10-16T04:40:55;13.50;99.90
36670;DHT22;22662;47.412;9.742;2022-10-16T04:43:21;13.50;99.90
36670;DHT22;22662;47.412;9.742;2022-10-16T04:45:46;13.60;99.90
36670;DHT22;22662;47.412;9.742;2022-10-16T04:48:12;13.70;99.90
36670;DHT22;22662;47.412;9.742;2022-10-16T04:50:37;13.80;99.90
36670;DHT22;22662;47.412;9.742;2022-10-16T04:53:03;13.90;99.90
36670;DHT22;22662;47.412;9.742;2022-10-16T04:55:29;14.00;99.90
36670;DHT22;22662;47.412;9.742;2022-10-16T04:57:54;13.90;99.90
36670;DHT22;22662;47.412;9.742;2022-10-16T05:00:20;13.90;99.90
36670;DHT22;22662;47.412;9.742;2022-10-16T05:02:47;13.70;99.90
36670;DHT22;22662;47.412;9.742;2022-10-16T05:05:14;13.70;99.90
36670;DHT22;22662;47.412;9.742;2022-10-16T05:07:40;13.60;99.90
36670;DHT22;22662;47.412;9.742;2022-10-16T05:10:06;13.50;99.90
36670;DHT22;22662;47.412;9.742;2022-10-16T05:12:31;13.40;99.90
36670;DHT22;22662;47.412;9.742;2022-10-16T05:14:57;13.40;99.90
36670;DHT22;22662;47.412;9.742;2022-10-16T05:17:26;13.40;99.90
36670;DHT22;22662;47.412;9.742;2022-10-16T05:19:52;13.50;99.90
36670;DHT22;22662;47.412;9.742;2022-10-16T05:22:18;13.50;99.90
36670;DHT22;22662;47.412;9.742;2022-10-16T05:24:43;13.60;99.90
36670;DHT22;22662;47.412;9.742;2022-10-16T05:27:09;13.60;99.90
36670;DHT22;22662;47.412;9.742;2022-10-16T05:29:35;13.60;99.90
36670;DHT22;22662;47.412;9.742;2022-10-16T05:32:00;13.60;99.90
36670;DHT22;22662;47.412;9.742;2022-10-16T05:34:26;13.60;99.90
36670;DHT22;22662;47.412;9.742;2022-10-16T05:36:52;13.60;99.90
36670;DHT22;22662;47.412;9.742;2022-10-16T05:39:17;13.60;99.90
36670;DHT22;22662;47.412;9.742;2022-10-16T05:41:43;13.60;99.90
36670;DHT22;22662;47.412;9.742;2022-10-16T05:44:09;13.60;99.90
36670;DHT22;22662;47.412;9.742;2022-10-16T05:46:34;13.60;99.90
36670;DHT22;22662;47.412;9.742;2022-10-16T05:49:00;13.70;99.90
36670;DHT22;22662;47.412;9.742;2022-10-16T05:51:26;13.80;99.90
36670;DHT22;22662;47.412;9.742;2022-10-16T05:53:51;13.80;99.90
36670;DHT22;22662;47.412;9.742;2022-10-16T05:56:17;13.70;99.90
36670;DHT22;22662;47.412;9.742;2022-10-16T05:58:43;13.70;99.90
36670;DHT22;22662;47.412;9.742;2022-10-16T06:01:10;13.70;99.90
36670;DHT22;22662;47.412;9.742;2022-10-16T06:03:36;13.50;99.90
36670;DHT22;22662;47.412;9.742;2022-10-16T06:06:12;13.50;99.90
36670;DHT22;22662;47.412;9.742;2022-10-16T06:08:38;13.50;99.90
36670;DHT22;22662;47.412;9.742;2022-10-16T06:11:04;13.50;99.90
36670;DHT22;22662;47.412;9.742;2022-10-16T06:13:30;13.40;99.90
36670;DHT22;22662;47.412;9.742;2022-10-16T06:15:59;13.50;99.90
36670;DHT22;22662;47.412;9.742;2022-10-16T06:18:25;13.50;99.90
36670;DHT22;22662;47.412;9.742;2022-10-16T06:20:51;13.60;99.90
36670;DHT22;22662;47.412;9.742;2022-10-16T06:23:17;13.60;99.90
36670;DHT22;22662;47.412;9.742;2022-10-16T06:25:42;13.60;99.90
36670;DHT22;22662;47.412;9.742;2022-10-16T06:28:08;13.60;99.90
36670;DHT22;22662;47.412;9.742;2022-10-16T06:30:33;13.70;99.90
36670;DHT22;22662;47.412;9.742;2022-10-16T06:32:59;13.70;99.90
36670;DHT22;22662;47.412;9.742;2022-10-16T06:35:24;13.80;99.90
36670;DHT22;22662;47.412;9.742;2022-10-16T06:37:52;13.80;99.90
36670;DHT22;22662;47.412;9.742;2022-10-16T06:40:17;13.90;99.90
36670;DHT22;22662;47.412;9.742;2022-10-16T06:42:43;14.00;99.90
36670;DHT22;22662;47.412;9.742;2022-10-16T06:45:09;14.00;99.90
36670;DHT22;22662;47.412;9.742;2022-10-16T06:47:34;14.10;99.90
36670;DHT22;22662;47.412;9.742;2022-10-16T06:50:00;14.10;99.90
36670;DHT22;22662;47.412;9.742;2022-10-16T06:52:29;14.20;99.90
36670;DHT22;22662;47.412;9.742;2022-10-16T06:54:54;14.30;99.90
36670;DHT22;22662;47.412;9.742;2022-10-16T06:57:20;14.30;99.90
36670;DHT22;22662;47.412;9.742;2022-10-16T06:59:45;14.40;99.90
36670;DHT22;22662;47.412;9.742;2022-10-16T07:02:11;14.50;99.90
36670;DHT22;22662;47.412;9.742;2022-10-16T07:04:37;14.60;99.90
36670;DHT22;22662;47.412;9.742;2022-10-16T07:07:02;14.70;99.90
36670;DHT22;22662;47.412;9.742;2022-10-16T07:09:28;15.00;99.90
36670;DHT22;22662;47.412;9.742;2022-10-16T07:11:53;15.10;99.90
36670;DHT22;22662;47.412;9.742;2022-10-16T07:14:20;15.20;99.90
36670;DHT22;22662;47.412;9.742;2022-10-16T07:16:46;15.40;99.90
36670;DHT22;22662;47.412;9.742;2022-10-16T07:19:12;15.70;99.90
36670;DHT22;22662;47.412;9.742;2022-10-16T07:21:40;16.00;99.90
36670;DHT22;22662;47.412;9.742;2022-10-16T07:24:06;16.30;99.90
36670;DHT22;22662;47.412;9.742;2022-10-16T07:26:33;16.60;99.90
36670;DHT22;22662;47.412;9.742;2022-10-16T07:28:59;16.80;99.90
36670;DHT22;22662;47.412;9.742;2022-10-16T07:31:25;17.00;99.90
36670;DHT22;22662;47.412;9.742;2022-10-16T07:33:51;17.30;99.90
36670;DHT22;22662;47.412;9.742;2022-10-16T07:36:17;17.50;99.90
36670;DHT22;22662;47.412;9.742;2022-10-16T07:38:43;17.80;99.90
36670;DHT22;22662;47.412;9.742;2022-10-16T07:41:12;17.60;99.90
36670;DHT22;22662;47.412;9.742;2022-10-16T07:43:39;17.70;99.90
36670;DHT22;22662;47.412;9.742;2022-10-16T07:46:04;17.60;99.90
36670;DHT22;22662;47.412;9.742;2022-10-16T07:48:31;17.70;99.90
36670;DHT22;22662;47.412;9.742;2022-10-16T07:50:58;17.50;99.90
36670;DHT22;22662;47.412;9.742;2022-10-16T07:53:24;17.70;99.90
36670;DHT22;22662;47.412;9.742;2022-10-16T07:55:50;17.90;99.90
36670;DHT22;22662;47.412;9.742;2022-10-16T07:58:15;18.20;99.90
36670;DHT22;22662;47.412;9.742;2022-10-16T08:00:41;18.30;99.90
36670;DHT22;22662;47.412;9.742;2022-10-16T08:03:07;18.40;99.90
36670;DHT22;22662;47.412;9.742;2022-10-16T08:05:33;18.30;99.90
36670;DHT22;22662;47.412;9.742;2022-10-16T08:08:00;18.20;99.90
36670;DHT22;22662;47.412;9.742;2022-10-16T08:10:26;18.20;99.90
36670;DHT22;22662;47.412;9.742;2022-10-16T08:12:52;18.20;99.90
36670;DHT22;22662;47.412;9.742;2022-10-16T08:15:18;18.30;99.90
36670;DHT22;22662;47.412;9.742;2022-10-16T08:17:44;18.30;99.90
36670;DHT22;22662;47.412;9.742;2022-10-16T08:20:09;18.30;99.90
36670;DHT22;22662;47.412;9.742;2022-10-16T08:22:35;18.40;99.90
36670;DHT22;22662;47.412;9.742;2022-10-16T08:25:01;18.50;99.90
36670;DHT22;22662;47.412;9.742;2022-10-16T08:27:35;18.70;99.90
36670;DHT22;22662;47.412;9.742;2022-10-16T08:30:01;18.70;99.90
36670;DHT22;22662;47.412;9.742;2022-10-16T08:32:26;18.60;99.90
36670;DHT22;22662;47.412;9.742;2022-10-16T08:34:52;18.70;99.90
36670;DHT22;22662;47.412;9.742;2022-10-16T08:37:17;18.70;99.90
36670;DHT22;22662;47.412;9.742;2022-10-16T08:39:43;18.70;99.90
36670;DHT22;22662;47.412;9.742;2022-10-16T08:49:57;18.70;99.90
36670;DHT22;22662;47.412;9.742;2022-10-16T08:52:24;18.80;99.90
36670;DHT22;22662;47.412;9.742;2022-10-16T08:54:51;19.10;99.90
36670;DHT22;22662;47.412;9.742;2022-10-16T08:57:20;19.10;99.90
36670;DHT22;22662;47.412;9.742;2022-10-16T08:59:46;19.10;99.90
36670;DHT22;22662;47.412;9.742;2022-10-16T09:07:13;18.90;99.90
36670;DHT22;22662;47.412;9.742;2022-10-16T09:09:58;19.00;99.90
36670;DHT22;22662;47.412;9.742;2022-10-16T09:12:28;19.10;99.90
36670;DHT22;22662;47.412;9.742;2022-10-16T09:20:13;19.10;99.90
36670;DHT22;22662;47.412;9.742;2022-10-16T09:22:40;18.90;99.90
36670;DHT22;22662;47.412;9.742;2022-10-16T09:25:13;18.70;99.90
36670;DHT22;22662;47.412;9.742;2022-10-16T09:27:39;18.80;99.90
36670;DHT22;22662;47.412;9.742;2022-10-16T09:30:15;19.00;99.90
36670;DHT22;22662;47.412;9.742;2022-10-16T09:32:41;19.00;99.90
36670;DHT22;22662;47.412;9.742;2022-10-16T09:35:13;19.00;99.90
36670;DHT22;22662;47.412;9.742;2022-10-16T09:37:39;19.20;99.90
36670;DHT22;22662;47.412;9.742;2022-10-16T09:40:05;19.30;99.90
36670;DHT22;22662;47.412;9.742;2022-10-16T09:42:32;19.30;99.90
36670;DHT22;22662;47.412;9.742;2022-10-16T09:44:58;19.40;99.90
36670;DHT22;22662;47.412;9.742;2022-10-16T09:47:25;19.50;99.90
36670;DHT22;22662;47.412;9.742;2022-10-16T09:49:52;19.50;99.90
36670;DHT22;22662;47.412;9.742;2022-10-16T09:52:18;19.60;99.90
36670;DHT22;22662;47.412;9.742;2022-10-16T09:57:20;19.70;99.90
36670;DHT22;22662;47.412;9.742;2022-10-16T09:59:46;19.90;99.90
36670;DHT22;22662;47.412;9.742;2022-10-16T10:02:13;20.10;99.90
36670;DHT22;22662;47.412;9.742;2022-10-16T10:04:40;20.20;99.90
36670;DHT22;22662;47.412;9.742;2022-10-16T10:07:07;20.10;99.90
36670;DHT22;22662;47.412;9.742;2022-10-16T10:09:42;20.20;99.90
36670;DHT22;22662;47.412;9.742;2022-10-16T10:12:23;20.30;99.90
36670;DHT22;22662;47.412;9.742;2022-10-16T10:14:49;20.40;99.90
36670;DHT22;22662;47.412;9.742;2022-10-16T10:17:17;20.50;99.90
36670;DHT22;22662;47.412;9.742;2022-10-16T10:20:22;20.50;99.90
36670;DHT22;22662;47.412;9.742;2022-10-16T10:22:44;20.60;99.90
36670;DHT22;22662;47.412;9.742;2022-10-16T10:27:42;20.80;99.90
36670;DHT22;22662;47.412;9.742;2022-10-16T10:38:06;20.90;99.90
36670;DHT22;22662;47.412;9.742;2022-10-16T10:40:48;21.10;99.90
36670;DHT22;22662;47.412;9.742;2022-10-16T10:45:45;21.20;99.90
36670;DHT22;22662;47.412;9.742;2022-10-16T10:50:57;21.40;99.90
36670;DHT22;22662;47.412;9.742;2022-10-16T11:03:34;21.50;99.90
36670;DHT22;22662;47.412;9.742;2022-10-16T11:06:06;21.60;99.90
36670;DHT22;22662;47.412;9.742;2022-10-16T11:11:14;21.80;99.90
36670;DHT22;22662;47.412;9.742;2022-10-16T11:16:20;21.80;99.90
36670;DHT22;22662;47.412;9.742;2022-10-16T11:18:49;21.80;99.90
36670;DHT22;22662;47.412;9.742;2022-10-16T11:21:17;22.00;99.90
36670;DHT22;22662;47.412;9.742;2022-10-16T11:23:47;22.10;99.90
36670;DHT22;22662;47.412;9.742;2022-10-16T11:26:19;22.10;99.90
36670;DHT22;22662;47.412;9.742;2022-10-16T11:28:50;22.30;99.90
36670;DHT22;22662;47.412;9.742;2022-10-16T11:33:49;22.60;99.90
36670;DHT22;22662;47.412;9.742;2022-10-16T11:38:59;22.60;99.90
36670;DHT22;22662;47.412;9.742;2022-10-16T11:41:32;22.30;99.90
36670;DHT22;22662;47.412;9.742;2022-10-16T11:46:26;22.50;99.90
36670;DHT22;22662;47.412;9.742;2022-10-16T11:51:38;22.70;99.90
36670;DHT22;22662;47.412;9.742;2022-10-16T11:54:21;22.70;99.90
36670;DHT22;22662;47.412;9.742;2022-10-16T11:56:48;22.70;99.90
36670;DHT22;22662;47.412;9.742;2022-10-16T12:01:47;22.70;99.90
36670;DHT22;22662;47.412;9.742;2022-10-16T12:11:46;22.90;99.90
36670;DHT22;22662;47.412;9.742;2022-10-16T12:16:37;23.00;99.90
36670;DHT22;22662;47.412;9.742;2022-10-16T12:19:09;23.00;99.90
36670;DHT22;22662;47.412;9.742;2022-10-16T12:21:36;23.00;99.90
36670;DHT22;22662;47.412;9.742;2022-10-16T12:24:02;23.00;99.90
36670;DHT22;22662;47.412;9.742;2022-10-16T12:26:32;23.00;99.90
36670;DHT22;22662;47.412;9.742;2022-10-16T12:31:54;23.10;99.90
36670;DHT22;22662;47.412;9.742;2022-10-16T12:34:35;23.20;99.90
36670;DHT22;22662;47.412;9.742;2022-10-16T12:37:15;23.10;99.90
36670;DHT22;22662;47.412;9.742;2022-10-16T12:39:44;23.30;99.90
36670;DHT22;22662;47.412;9.742;2022-10-16T12:44:45;23.40;99.90
36670;DHT22;22662;47.412;9.742;2022-10-16T12:47:24;23.50;99.90
36670;DHT22;22662;47.412;9.742;2022-10-16T12:50:00;23.60;99.90
36670;DHT22;22662;47.412;9.742;2022-10-16T12:52:27;23.70;99.90
36670;DHT22;22662;47.412;9.742;2022-10-16T12:54:55;23.70;99.90
36670;DHT22;22662;47.412;9.742;2022-10-16T13:07:17;23.90;99.90
36670;DHT22;22662;47.412;9.742;2022-10-16T13:09:50;23.80;99.90
36670;DHT22;22662;47.412;9.742;2022-10-16T13:12:36;23.50;99.90
36670;DHT22;22662;47.412;9.742;2022-10-16T13:17:45;23.40;99.90
36670;DHT22;22662;47.412;9.742;2022-10-16T13:23:02;23.30;99.90
36670;DHT22;22662;47.412;9.742;2022-10-16T13:25:34;23.20;99.90
36670;DHT22;22662;47.412;9.742;2022-10-16T13:28:05;22.90;99.90
36670;DHT22;22662;47.412;9.742;2022-10-16T13:30:53;22.80;99.90
36670;DHT22;22662;47.412;9.742;2022-10-16T13:33:24;22.80;99.90
36670;DHT22;22662;47.412;9.742;2022-10-16T13:35:51;22.90;99.90
36670;DHT22;22662;47.412;9.742;2022-10-16T13:38:18;22.90;99.90
36670;DHT22;22662;47.412;9.742;2022-10-16T13:40:48;22.90;99.90
36670;DHT22;22662;47.412;9.742;2022-10-16T13:43:14;23.10;99.90
36670;DHT22;22662;47.412;9.742;2022-10-16T13:45:39;23.10;99.90
36670;DHT22;22662;47.412;9.742;2022-10-16T13:48:06;23.10;99.90
36670;DHT22;22662;47.412;9.742;2022-10-16T13:50:34;23.10;99.90
36670;DHT22;22662;47.412;9.742;2022-10-16T13:53:07;23.10;99.90
36670;DHT22;22662;47.412;9.742;2022-10-16T13:55:37;23.30;99.90
36670;DHT22;22662;47.412;9.742;2022-10-16T13:58:12;23.40;99.90
36670;DHT22;22662;47.412;9.742;2022-10-16T14:00:38;23.50;99.90
36670;DHT22;22662;47.412;9.742;2022-10-16T14:03:04;23.50;99.90
36670;DHT22;22662;47.412;9.742;2022-10-16T14:05:30;23.50;99.90
36670;DHT22;22662;47.412;9.742;2022-10-16T14:07:56;23.50;99.90
36670;DHT22;22662;47.412;9.742;2022-10-16T14:10:24;23.50;99.90
36670;DHT22;22662;47.412;9.742;2022-10-16T14:12:54;23.50;99.90
36670;DHT22;22662;47.412;9.742;2022-10-16T14:15:19;23.60;99.90
36670;DHT22;22662;47.412;9.742;2022-10-16T14:17:45;23.50;99.90
36670;DHT22;22662;47.412;9.742;2022-10-16T14:20:13;23.50;99.90
36670;DHT22;22662;47.412;9.742;2022-10-16T14:22:40;23.50;99.90
36670;DHT22;22662;47.412;9.742;2022-10-16T14:28:14;23.50;99.90
36670;DHT22;22662;47.412;9.742;2022-10-16T14:31:02;23.40;99.90
36670;DHT22;22662;47.412;9.742;2022-10-16T14:36:02;23.20;99.90
36670;DHT22;22662;47.412;9.742;2022-10-16T14:38:28;23.20;99.90
36670;DHT22;22662;47.412;9.742;2022-10-16T14:40:54;23.30;99.90
36670;DHT22;22662;47.412;9.742;2022-10-16T14:43:31;23.30;99.90
36670;DHT22;22662;47.412;9.742;2022-10-16T14:45:57;23.30;99.90
36670;DHT22;22662;47.412;9.742;2022-10-16T14:48:23;23.30;99.90
36670;DHT22;22662;47.412;9.742;2022-10-16T14:50:49;23.40;99.90
36670;DHT22;22662;47.412;9.742;2022-10-16T14:53:15;23.40;99.90
36670;DHT22;22662;47.412;9.742;2022-10-16T14:55:41;23.30;99.90
36670;DHT22;22662;47.412;9.742;2022-10-16T15:00:41;23.30;99.90
36670;DHT22;22662;47.412;9.742;2022-10-16T15:03:07;23.20;99.90
36670;DHT22;22662;47.412;9.742;2022-10-16T15:05:32;23.20;99.90
36670;DHT22;22662;47.412;9.742;2022-10-16T15:07:58;23.20;99.90
36670;DHT22;22662;47.412;9.742;2022-10-16T15:10:24;23.20;99.90
36670;DHT22;22662;47.412;9.742;2022-10-16T15:12:51;23.00;99.90
36670;DHT22;22662;47.412;9.742;2022-10-16T15:17:48;22.80;99.90
36670;DHT22;22662;47.412;9.742;2022-10-16T15:20:17;22.70;99.90
36670;DHT22;22662;47.412;9.742;2022-10-16T15:22:43;22.60;99.90
36670;DHT22;22662;47.412;9.742;2022-10-16T15:27:52;22.20;99.90
36670;DHT22;22662;47.412;9.742;2022-10-16T15:30:18;22.20;99.90
36670;DHT22;22662;47.412;9.742;2022-10-16T15:32:43;22.10;99.90
36670;DHT22;22662;47.412;9.742;2022-10-16T15:35:09;22.10;99.90
36670;DHT22;22662;47.412;9.742;2022-10-16T15:37:34;22.10;99.90
36670;DHT22;22662;47.412;9.742;2022-10-16T15:40:00;22.00;99.90
36670;DHT22;22662;47.412;9.742;2022-10-16T15:42:26;21.80;99.90
36670;DHT22;22662;47.412;9.742;2022-10-16T15:44:51;21.60;99.90
36670;DHT22;22662;47.412;9.742;2022-10-16T15:47:17;21.50;99.90
36670;DHT22;22662;47.412;9.742;2022-10-16T15:49:43;21.30;99.90
36670;DHT22;22662;47.412;9.742;2022-10-16T15:52:08;21.20;99.90
36670;DHT22;22662;47.412;9.742;2022-10-16T15:54:34;21.10;99.90
36670;DHT22;22662;47.412;9.742;2022-10-16T15:56:59;21.00;99.90
36670;DHT22;22662;47.412;9.742;2022-10-16T15:59:25;20.90;99.90
36670;DHT22;22662;47.412;9.742;2022-10-16T16:01:50;20.90;99.90
36670;DHT22;22662;47.412;9.742;2022-10-16T16:04:16;20.80;99.90
36670;DHT22;22662;47.412;9.742;2022-10-16T16:06:42;20.70;99.90
36670;DHT22;22662;47.412;9.742;2022-10-16T16:09:13;20.70;99.90
36670;DHT22;22662;47.412;9.742;2022-10-16T16:11:39;20.60;99.90
36670;DHT22;22662;47.412;9.742;2022-10-16T16:14:05;20.50;99.90
36670;DHT22;22662;47.412;9.742;2022-10-16T16:16:31;20.30;99.90
36670;DHT22;22662;47.412;9.742;2022-10-16T16:19:02;20.10;99.90
36670;DHT22;22662;47.412;9.742;2022-10-16T16:21:27;19.90;99.90
36670;DHT22;22662;47.412;9.742;2022-10-16T16:23:53;19.70;99.90
36670;DHT22;22662;47.412;9.742;2022-10-16T16:26:26;19.60;99.90
36670;DHT22;22662;47.412;9.742;2022-10-16T16:28:53;19.40;99.90
36670;DHT22;22662;47.412;9.742;2022-10-16T16:31:19;19.20;99.90
36670;DHT22;22662;47.412;9.742;2022-10-16T16:33:44;19.00;99.90
36670;DHT22;22662;47.412;9.742;2022-10-16T16:36:11;18.90;99.90
36670;DHT22;22662;47.412;9.742;2022-10-16T16:38:36;18.80;99.90
36670;DHT22;22662;47.412;9.742;2022-10-16T16:41:12;18.60;99.90
36670;DHT22;22662;47.412;9.742;2022-10-16T16:43:38;18.60;99.90
36670;DHT22;22662;47.412;9.742;2022-10-16T16:46:03;18.50;99.90
36670;DHT22;22662;47.412;9.742;2022-10-16T16:48:29;18.40;99.90
36670;DHT22;22662;47.412;9.742;2022-10-16T16:50:54;18.30;99.90
36670;DHT22;22662;47.412;9.742;2022-10-16T16:53:21;18.10;99.90
36670;DHT22;22662;47.412;9.742;2022-10-16T16:55:47;18.00;99.90
36670;DHT22;22662;47.412;9.742;2022-10-16T16:58:13;17.90;99.90
36670;DHT22;22662;47.412;9.742;2022-10-16T17:00:45;17.90;99.90
36670;DHT22;22662;47.412;9.742;2022-10-16T17:03:11;17.90;99.90
36670;DHT22;22662;47.412;9.742;2022-10-16T17:05:37;17.90;99.90
36670;DHT22;22662;47.412;9.742;2022-10-16T17:08:05;17.90;99.90
36670;DHT22;22662;47.412;9.742;2022-10-16T17:10:31;17.80;99.90
36670;DHT22;22662;47.412;9.742;2022-10-16T17:12:57;17.70;99.90
36670;DHT22;22662;47.412;9.742;2022-10-16T17:15:22;17.60;99.90
36670;DHT22;22662;47.412;9.742;2022-10-16T17:17:48;17.60;99.90
36670;DHT22;22662;47.412;9.742;2022-10-16T17:20:14;17.50;99.90
36670;DHT22;22662;47.412;9.742;2022-10-16T17:22:39;17.50;99.90
36670;DHT22;22662;47.412;9.742;2022-10-16T17:25:06;17.40;99.90
36670;DHT22;22662;47.412;9.742;2022-10-16T17:27:33;17.30;99.90
36670;DHT22;22662;47.412;9.742;2022-10-16T17:29:58;17.30;99.90